Cubero, New Mexico
Current Conditions -  °F | °C
As of 5:56 PM on Wednesday 22 Oct 2014 (Local Time) from KGNT Reporting Station
Clear Clear  
Wind Chill: 66°   Ceiling: Unl
Heat Index: 66°   Visibility: 10mi
Dew Point: 34°   Wind: 0mph
Humidity: 30%   Direction: NA
Pressure: 30.2"   Gusts: NA
Location:  35.08°N, 107.52°W
Report Text: KGNT 222356Z AUTO 00000KT 10SM CLR 19/01 A3020 RMK AO2
Loading
Personal Weather Stations






























Interactive Weather Map
Tropical Storm Tracking
New forecast layout! Learn more

10-Day Weather Forecast

Advertisements
Track Severe Weather on mobile